Flight Track Log - Related Links

Times and Time Zones

All times are in EDT time to prevent confusion due to time zone crossing. See the SWA1910 flight status page for this flight to view local times or setup timezone preferences in your user account.


Time Position Orientation Groundspeed Altitude Reporting Facility
EDT Latitude Longitude Course Direction KTS MPH feet Rate Location/Type
Fri 06:39:54 PM 42.9000 -78.7833 224° Southwest 179 206 3,500  Level Buffalo TRACON
Fri 06:41:00 PM 42.8333 -78.7833 180° South 285 328 6,900 3,111 Climbing Buffalo TRACON
Fri 06:41:15 PM 42.8089 -78.7806 175° South 273 314 7,700 3,120 Climbing Cleveland Center
Fri 06:42:15 PM 42.7272 -78.7544 167° South 304 350 10,800 3,150 Climbing Cleveland Center
Fri 06:43:15 PM 42.6225 -78.7322 171° South 330 380 14,000 3,350 Climbing Cleveland Center
Fri 06:44:15 PM 42.5139 -78.7100 171° South 370 426 17,500 3,250 Climbing Cleveland Center
Fri 06:45:15 PM 42.3944 -78.6714 167° South 415 478 20,500 2,750 Climbing Cleveland Center
Fri 06:46:15 PM 42.2781 -78.5794 150° Southeast 452 520 23,000 1,250 Climbing Cleveland Center
Fri 06:47:15 PM 42.1556 -78.4825 150° Southeast 481 554 23,000  Level Cleveland Center
Fri 06:48:15 PM 42.0347 -78.3831 149° Southeast 498 573 23,000  Level Cleveland Center
Fri 06:49:15 PM 41.9183 -78.2922 150° Southeast 503 579 23,000  Level Cleveland Center
Fri 06:51:19 PM 41.6864 -78.1069 149° Southeast 484 557 23,000  Level New York Center
Fri 06:52:20 PM 41.5672 -78.0136 150° Southeast 490 564 23,000  Level New York Center
Fri 06:53:20 PM 41.4639 -77.8944 139° Southeast 490 564 23,000  Level New York Center
Fri 06:54:18 PM 41.3722 -77.7547 131° Southeast 495 570 23,000 -303 Level New York Center
Fri 06:55:19 PM 41.2822 -77.6183 131° Southeast 495 570 22,400 -787 Descending New York Center
Fri 06:56:20 PM 41.1919 -77.4850 132° Southeast 489 563 21,400 -1,041 Descending New York Center
Fri 06:57:20 PM 41.0978 -77.3436 131° Southeast 477 549 20,300 -1,068 Descending New York Center
Fri 06:58:18 PM 41.0131 -77.2169 132° Southeast 471 542 19,300 -966 Descending New York Center
Fri 06:59:18 PM 40.9281 -77.0908 132° Southeast 465 535 18,400 -992 Descending New York Center
Fri 07:00:19 PM 40.8447 -76.9706 132° Southeast 453 521 17,300 -984 Descending New York Center
Fri 07:01:20 PM 40.7733 -76.8656 132° Southeast 442 509 16,400 -958 Descending New York Center
Fri 07:02:18 PM 40.6847 -76.7592 138° Southeast 435 501 15,400 -706 Descending New York Center
Fri 07:03:19 PM 40.5864 -76.6439 138° Southeast 430 495 15,000 -148 Descending New York Center
Fri 07:04:20 PM 40.5131 -76.5231 129° Southeast 424 488 15,100 50 Climbing New York Center
Fri 07:05:20 PM 40.4306 -76.4178 136° Southeast 424 488 15,100 -50 Level New York Center
Fri 07:06:20 PM 40.3219 -76.4228 182° South 368 423 15,000 -350 Descending New York Center
Fri 07:07:20 PM 40.2228 -76.4500 192° South 380 437 14,400 -800 Descending New York Center
Fri 07:08:20 PM 40.1114 -76.4706 188° South 402 463 13,400 -993 Descending New York Center
Fri 07:09:51 PM 39.9333 -76.5167 191° South 385 443 11,900 -535 Descending Potomac TRACON
Fri 07:10:57 PM 39.8167 -76.5333 186° South 385 443 12,000 48 Climbing Potomac TRACON
Fri 07:11:57 PM 39.7167 -76.5500 187° South 380 437 12,000 -600 Level Potomac TRACON
Fri 07:12:57 PM 39.6000 -76.5500 180° South 367 422 10,800 -1,050 Descending Potomac TRACON
Fri 07:13:57 PM 39.5167 -76.5500 180° South 327 376 9,900 -1,150 Descending Potomac TRACON
Fri 07:14:57 PM 39.4333 -76.5333 171° South 303 349 8,500 -1,474 Descending Potomac TRACON
Fri 07:15:51 PM 39.3667 -76.5333 180° South 279 321 7,100 -1,500 Descending Potomac TRACON
Fri 07:16:57 PM 39.2667 -76.5333 180° South 280 322 5,500 -1,318 Descending Potomac TRACON
Fri 07:18:03 PM 39.2167 -76.5667 207° Southwest 198 228 4,200 -1,238 Descending Potomac TRACON
Fri 07:19:03 PM 39.1667 -76.5833 194° South 151 174 2,900 -1,300 Descending Potomac TRACON

Login

Don't have an account? Register now (free) for customized features, flight alerts, and more!